Time;durP1;ratioP1;P1;durP2;ratioP2;P2;SDS_P1;SDS_P2;PMS_P1;PMS_P2;Temp;Humidity;BMP_temperature;BMP_pressure;BME280_temperature;BME280_humidity;BME280_pressure;Samples;Min_cycle;Max_cycle;Signal;HPM_P1;HPM_P2
2021/12/13 00:02:32;;;;;;;27.83;18.75;;;6.00;1.00;;;;;;6076785;23;20194;-84
2021/12/13 00:05:06;;;;;;;27.85;17.05;;;6.10;1.00;;;;;;6098637;23;20189;-84
2021/12/13 00:07:36;;;;;;;28.80;17.88;;;6.10;1.00;;;;;;6096126;23;20240;-84
2021/12/13 00:10:11;;;;;;;29.60;19.35;;;6.10;1.00;;;;;;6096712;23;20200;-85
2021/12/13 00:12:41;;;;;;;30.20;17.92;;;6.10;1.00;;;;;;6071541;23;20200;-83
2021/12/13 00:15:16;;;;;;;27.63;17.90;;;6.10;1.00;;;;;;6099102;23;20181;-83
2021/12/13 00:17:46;;;;;;;28.50;17.92;;;6.20;1.00;;;;;;6073126;23;20266;-85
2021/12/13 00:20:19;;;;;;;26.60;17.80;;;6.20;1.00;;;;;;6100863;23;20228;-84
2021/12/13 00:22:49;;;;;;;28.25;17.45;;;6.20;1.00;;;;;;6103921;23;20192;-82
2021/12/13 00:25:18;;;;;;;26.98;17.95;;;6.30;1.00;;;;;;6111061;23;20203;-83
2021/12/13 00:27:49;;;;;;;29.17;18.63;;;6.30;1.00;;;;;;6109725;23;20196;-84
2021/12/13 00:30:33;;;;;;;25.80;18.55;;;6.30;1.00;;;;;;6110112;23;20256;-83
2021/12/13 00:33:08;;;;;;;25.20;16.10;;;6.30;1.00;;;;;;6106346;23;20639;-83
2021/12/13 00:35:41;;;;;;;29.77;17.65;;;6.30;1.00;;;;;;6093980;23;20272;-83
2021/12/13 00:38:11;;;;;;;25.30;17.83;;;6.30;1.00;;;;;;6093570;23;20197;-83
2021/12/13 00:40:42;;;;;;;23.70;18.08;;;6.30;1.00;;;;;;6066452;23;20200;-83
2021/12/13 00:43:15;;;;;;;25.30;16.60;;;6.30;1.00;;;;;;6095242;23;20660;-84
2021/12/13 00:45:52;;;;;;;26.73;17.85;;;6.30;1.00;;;;;;6099698;23;20698;-84
2021/12/13 00:48:21;;;;;;;27.17;18.88;;;6.30;1.00;;;;;;6097501;23;20192;-84
2021/12/13 00:50:54;;;;;;;27.23;16.40;;;6.30;1.00;;;;;;6092488;23;20218;-84
2021/12/13 00:53:23;;;;;;;29.88;18.30;;;6.30;1.00;;;;;;6099958;23;20260;-83
2021/12/13 00:55:51;;;;;;;30.02;17.83;;;6.40;1.00;;;;;;6097749;23;20192;-84
2021/12/13 00:58:20;;;;;;;28.35;18.42;;;6.30;1.00;;;;;;6096135;23;20229;-86
2021/12/13 01:00:52;;;;;;;30.27;17.83;;;6.40;1.00;;;;;;6092398;23;20225;-85
2021/12/13 01:03:22;;;;;;;30.80;18.90;;;6.40;1.00;;;;;;6092423;23;20185;-84
2021/12/13 01:06:34;;;;;;;27.27;17.70;;;6.40;1.00;;;;;;6092122;23;20969;-84
2021/12/13 01:09:34;;;;;;;28.70;19.00;;;6.40;1.00;;;;;;6094050;23;20704;-84
2021/12/13 01:12:05;;;;;;;24.15;16.15;;;6.40;1.00;;;;;;6093540;23;20215;-85
2021/12/13 01:14:57;;;;;;;28.67;19.88;;;6.50;1.00;;;;;;6093554;23;20203;-84
2021/12/13 01:17:42;;;;;;;29.42;18.38;;;6.50;1.00;;;;;;6115455;23;20188;-85
2021/12/13 01:20:16;;;;;;;29.25;18.90;;;6.50;1.00;;;;;;6120699;23;20184;-84
2021/12/13 01:22:50;;;;;;;27.08;19.08;;;6.50;1.00;;;;;;6095406;23;21401;-83
2021/12/13 01:25:38;;;;;;;25.10;17.50;;;6.50;1.00;;;;;;6095048;23;20196;-84
2021/12/13 01:28:11;;;;;;;23.88;17.73;;;6.60;1.00;;;;;;6096182;23;20201;-84
2021/12/13 01:30:41;;;;;;;27.15;19.05;;;6.60;1.00;;;;;;6097611;23;20173;-83
2021/12/13 01:33:11;;;;;;;25.92;17.75;;;6.60;1.00;;;;;;6099263;23;20219;-84
2021/12/13 01:35:42;;;;;;;25.98;17.08;;;6.70;1.00;;;;;;6098899;23;20263;-83
2021/12/13 01:38:15;;;;;;;28.58;18.55;;;6.70;1.00;;;;;;6099878;23;20223;-83
2021/12/13 01:40:46;;;;;;;25.30;18.17;;;6.70;1.00;;;;;;6099908;23;20185;-84
2021/12/13 01:43:18;;;;;;;23.83;18.08;;;6.70;1.00;;;;;;6103836;23;20188;-85
2021/12/13 01:45:49;;;;;;;22.27;16.40;;;6.70;1.00;;;;;;6125787;23;20191;-85
2021/12/13 01:48:21;;;;;;;27.33;18.45;;;6.70;1.00;;;;;;6123785;23;20202;-84
2021/12/13 01:50:53;;;;;;;27.90;18.65;;;6.70;1.00;;;;;;6122246;23;20179;-84
2021/12/13 01:53:32;;;;;;;27.60;18.02;;;6.70;1.00;;;;;;6084725;23;20200;-82
2021/12/13 01:56:00;;;;;;;26.48;17.63;;;6.70;1.00;;;;;;6084790;23;20195;-82
2021/12/13 01:58:40;;;;;;;26.52;18.00;;;6.70;1.00;;;;;;6087048;23;20268;-83
2021/12/13 02:01:12;;;;;;;26.13;18.08;;;6.70;1.00;;;;;;6087142;23;20248;-84
2021/12/13 02:03:48;;;;;;;26.30;17.38;;;6.80;1.00;;;;;;6108422;23;20184;-84
2021/12/13 02:06:22;;;;;;;26.85;18.30;;;6.80;1.00;;;;;;6087952;23;20190;-85
2021/12/13 02:08:53;;;;;;;29.27;18.13;;;6.80;1.00;;;;;;6089117;23;20216;-84
2021/12/13 02:11:22;;;;;;;24.10;16.45;;;6.90;1.00;;;;;;6090897;23;20691;-83
2021/12/13 02:14:06;;;;;;;26.95;18.88;;;6.80;1.00;;;;;;6102046;23;20211;-83
2021/12/13 02:19:23;;;;;;;25.38;16.95;;;6.80;1.00;;;;;;6120972;23;20194;-84
2021/12/13 02:21:57;;;;;;;25.27;15.98;;;6.90;1.00;;;;;;6099530;23;20275;-83
2021/12/13 02:24:25;;;;;;;26.75;16.67;;;6.90;1.00;;;;;;6093951;23;20434;-83
2021/12/13 02:26:53;;;;;;;27.08;18.90;;;6.90;1.00;;;;;;6101738;23;20192;-84
2021/12/13 02:29:23;;;;;;;25.35;18.25;;;6.80;1.00;;;;;;6101181;23;20192;-83
2021/12/13 02:31:50;;;;;;;25.77;18.58;;;6.80;1.00;;;;;;6095777;23;20803;-84
2021/12/13 02:34:19;;;;;;;28.67;20.55;;;6.80;1.00;;;;;;6065700;23;20256;-84
2021/12/13 02:36:51;;;;;;;26.42;17.95;;;6.80;1.00;;;;;;6071990;23;20291;-84
2021/12/13 02:39:23;;;;;;;27.90;18.63;;;6.80;1.00;;;;;;6101230;23;20201;-84
2021/12/13 02:41:53;;;;;;;28.77;18.73;;;6.90;1.00;;;;;;6118128;23;20252;-84
2021/12/13 02:44:23;;;;;;;31.35;19.10;;;6.90;1.00;;;;;;6122277;23;20192;-84
2021/12/13 02:46:51;;;;;;;27.58;18.55;;;6.90;1.00;;;;;;6116492;23;20191;-84
2021/12/13 02:49:18;;;;;;;30.15;19.35;;;6.80;1.00;;;;;;6120533;23;20192;-85
2021/12/13 02:51:49;;;;;;;27.75;18.15;;;6.90;1.00;;;;;;6116808;23;20185;-86
2021/12/13 02:54:21;;;;;;;28.23;18.08;;;6.90;1.00;;;;;;6113691;23;20195;-85
2021/12/13 02:56:53;;;;;;;30.73;19.08;;;6.90;1.00;;;;;;6097244;23;20208;-85
2021/12/13 02:59:22;;;;;;;30.27;19.30;;;7.00;1.00;;;;;;6100584;23;20232;-85
2021/12/13 03:01:53;;;;;;;32.00;19.00;;;6.90;1.00;;;;;;6095817;23;20512;-83
2021/12/13 03:04:24;;;;;;;29.92;20.50;;;6.90;1.00;;;;;;6092348;23;20180;-84
2021/12/13 03:07:00;;;;;;;31.05;21.67;;;7.00;1.00;;;;;;6089284;23;20204;-84
2021/12/13 03:09:31;;;;;;;31.02;19.30;;;6.90;1.00;;;;;;6094504;23;20209;-85
2021/12/13 03:12:01;;;;;;;30.10;19.77;;;6.90;1.00;;;;;;6092779;23;20530;-84
2021/12/13 03:14:33;;;;;;;23.02;16.60;;;6.90;1.00;;;;;;6093337;23;20960;-84
2021/12/13 03:17:05;;;;;;;28.60;18.25;;;6.90;1.00;;;;;;6090455;23;20204;-84
2021/12/13 03:19:42;;;;;;;26.15;17.70;;;7.00;1.00;;;;;;6089550;23;20662;-83
2021/12/13 03:22:36;;;;;;;27.58;19.48;;;7.00;1.00;;;;;;6066517;23;20217;-85
2021/12/13 03:25:08;;;;;;;28.88;19.30;;;7.00;1.00;;;;;;6092356;23;20619;-84
2021/12/13 03:27:54;;;;;;;26.75;17.45;;;7.00;1.00;;;;;;6089314;23;20645;-82
2021/12/13 03:30:25;;;;;;;27.58;18.55;;;7.00;1.00;;;;;;6086792;23;20190;-82
2021/12/13 03:32:56;;;;;;;31.35;19.67;;;7.00;1.00;;;;;;6088540;23;21115;-84
2021/12/13 03:35:32;;;;;;;29.23;18.17;;;7.00;1.00;;;;;;6093485;23;20669;-85
2021/12/13 03:38:03;;;;;;;29.85;20.48;;;7.00;1.00;;;;;;6088646;23;20200;-85
2021/12/13 03:40:33;;;;;;;32.13;20.83;;;7.00;1.00;;;;;;6104959;23;20233;-85
2021/12/13 03:43:05;;;;;;;30.00;20.40;;;6.90;1.00;;;;;;6121237;23;20206;-85
2021/12/13 03:45:36;;;;;;;29.55;19.40;;;6.90;1.00;;;;;;6123167;23;20192;-85
2021/12/13 03:48:05;;;;;;;29.77;19.80;;;6.90;1.00;;;;;;6118938;23;20184;-85
2021/12/13 03:50:35;;;;;;;29.40;18.85;;;6.90;1.00;;;;;;6122524;23;20181;-85
2021/12/13 03:53:05;;;;;;;32.63;20.13;;;6.90;1.00;;;;;;6118821;23;20562;-85
2021/12/13 03:55:34;;;;;;;32.58;19.15;;;6.90;1.00;;;;;;6105323;23;20207;-84
2021/12/13 03:58:06;;;;;;;32.38;20.98;;;7.00;1.00;;;;;;6087719;23;20284;-84
2021/12/13 04:00:37;;;;;;;32.28;19.58;;;7.00;1.00;;;;;;6088535;23;21682;-85
2021/12/13 04:03:07;;;;;;;34.03;20.35;;;6.90;1.00;;;;;;6094331;23;20200;-84
2021/12/13 04:05:36;;;;;;;36.33;20.77;;;6.90;1.00;;;;;;6093744;23;20185;-84
2021/12/13 04:08:06;;;;;;;31.13;18.95;;;7.00;1.00;;;;;;6088495;23;20252;-83
2021/12/13 04:10:35;;;;;;;30.75;19.80;;;7.00;1.00;;;;;;6110000;23;20231;-85
2021/12/13 04:13:12;;;;;;;38.22;22.15;;;7.00;1.00;;;;;;6108771;23;20218;-86
2021/12/13 04:15:55;;;;;;;31.80;20.45;;;7.00;1.00;;;;;;6086004;23;20196;-84
2021/12/13 04:18:41;;;;;;;34.17;19.08;;;6.90;1.00;;;;;;6070971;23;20269;-85
2021/12/13 04:21:10;;;;;;;36.53;20.33;;;6.90;1.00;;;;;;6093976;23;20187;-84
2021/12/13 04:23:38;;;;;;;36.75;20.15;;;6.90;1.00;;;;;;6098439;23;20291;-85
2021/12/13 04:26:08;;;;;;;32.92;20.38;;;6.80;1.00;;;;;;6111496;23;21512;-84
2021/12/13 04:28:39;;;;;;;33.15;19.35;;;6.80;1.00;;;;;;6107684;23;20196;-85
2021/12/13 04:31:10;;;;;;;35.60;18.35;;;6.70;1.00;;;;;;6092298;23;20185;-85
2021/12/13 04:33:40;;;;;;;34.97;18.60;;;6.70;1.00;;;;;;6067751;23;20638;-84
2021/12/13 04:36:10;;;;;;;34.22;19.27;;;6.70;1.00;;;;;;6093299;23;20221;-84
2021/12/13 04:38:48;;;;;;;31.42;19.70;;;6.70;1.00;;;;;;6090172;23;20905;-85
2021/12/13 04:41:23;;;;;;;36.78;18.90;;;6.80;1.00;;;;;;6095098;23;20202;-85
2021/12/13 04:43:55;;;;;;;30.35;18.48;;;6.80;1.00;;;;;;6120345;23;20169;-84
2021/12/13 04:46:26;;;;;;;32.28;18.98;;;6.80;1.00;;;;;;6110301;23;20184;-84
2021/12/13 04:48:58;;;;;;;35.17;18.98;;;6.80;1.00;;;;;;6093198;23;20248;-85
2021/12/13 04:51:29;;;;;;;33.10;20.40;;;6.80;1.00;;;;;;6068161;23;20439;-84
2021/12/13 04:53:59;;;;;;;40.05;20.48;;;6.90;1.00;;;;;;6114467;23;20282;-85
2021/12/13 04:56:29;;;;;;;34.67;20.63;;;6.90;1.00;;;;;;6115043;23;20180;-84
2021/12/13 04:59:01;;;;;;;37.17;19.73;;;6.80;1.00;;;;;;6118489;23;20327;-85
2021/12/13 05:01:28;;;;;;;29.80;18.23;;;6.80;1.00;;;;;;6111095;23;20228;-86
2021/12/13 05:03:58;;;;;;;32.97;18.92;;;6.90;1.00;;;;;;6109837;23;20211;-85
2021/12/13 05:06:29;;;;;;;34.38;18.73;;;7.00;1.00;;;;;;6101365;23;20188;-85
2021/12/13 05:08:59;;;;;;;37.63;20.88;;;7.00;1.00;;;;;;6114702;23;20184;-84
2021/12/13 05:11:30;;;;;;;34.55;20.05;;;7.00;1.00;;;;;;6119660;23;20183;-84
2021/12/13 05:14:00;;;;;;;36.00;20.60;;;7.00;1.00;;;;;;6092570;23;20975;-83
2021/12/13 05:16:36;;;;;;;32.58;19.00;;;7.00;1.00;;;;;;6096734;23;20220;-85
2021/12/13 05:19:05;;;;;;;30.73;19.48;;;7.00;1.00;;;;;;6101417;23;20206;-85
2021/12/13 05:21:36;;;;;;;32.58;19.38;;;7.00;1.00;;;;;;6069892;23;20260;-88
2021/12/13 05:24:06;;;;;;;32.88;19.05;;;7.00;1.00;;;;;;6070031;23;20295;-82
2021/12/13 05:26:37;;;;;;;33.75;20.58;;;7.10;1.00;;;;;;6094944;23;20280;-83
2021/12/13 05:29:07;;;;;;;45.08;23.80;;;7.10;1.00;;;;;;6094293;23;20184;-83
2021/12/13 05:31:35;;;;;;;43.67;21.35;;;7.10;1.00;;;;;;6099105;23;21434;-90
2021/12/13 05:34:05;;;;;;;43.25;21.70;;;7.10;1.00;;;;;;6073653;23;20275;-79
2021/12/13 05:36:34;;;;;;;38.65;20.80;;;7.00;1.00;;;;;;6096701;23;20216;-80
2021/12/13 05:39:09;;;;;;;44.78;23.83;;;7.00;1.00;;;;;;6089544;23;20207;-79
2021/12/13 05:41:36;;;;;;;40.33;22.05;;;7.00;1.00;;;;;;6061887;23;20223;-83
2021/12/13 05:44:08;;;;;;;36.75;20.52;;;6.90;1.00;;;;;;6101085;23;20215;-80
2021/12/13 05:46:39;;;;;;;41.30;20.17;;;7.00;1.00;;;;;;6113964;23;20589;-80
2021/12/13 05:49:08;;;;;;;44.47;21.33;;;7.00;1.00;;;;;;6092369;23;20271;-84
2021/12/13 05:51:40;;;;;;;43.75;24.40;;;7.00;1.00;;;;;;6065035;23;21462;-85
2021/12/13 05:54:09;;;;;;;40.25;20.67;;;7.00;1.00;;;;;;6089119;23;20231;-82
2021/12/13 05:56:40;;;;;;;37.63;21.15;;;7.00;1.00;;;;;;6089617;23;20256;-82
2021/12/13 05:59:16;;;;;;;45.25;21.67;;;7.00;1.00;;;;;;6089010;23;20709;-80
2021/12/13 06:01:58;;;;;;;47.15;23.17;;;7.00;1.00;;;;;;6090325;23;20224;-80
2021/12/13 06:04:34;;;;;;;45.70;21.92;;;7.00;1.00;;;;;;6088424;23;20284;-84
2021/12/13 06:07:01;;;;;;;45.10;22.73;;;7.10;1.00;;;;;;6095280;23;20196;-82
2021/12/13 06:09:43;;;;;;;39.15;20.30;;;7.00;1.00;;;;;;6090784;23;20231;-78
2021/12/13 06:12:13;;;;;;;40.83;19.92;;;6.90;1.00;;;;;;6094994;23;20177;-82
2021/12/13 06:14:41;;;;;;;41.63;20.80;;;7.00;1.00;;;;;;6094094;23;21008;-85
2021/12/13 06:17:15;;;;;;;42.97;20.23;;;7.00;1.00;;;;;;6114402;23;20203;-82
2021/12/13 06:19:49;;;;;;;40.40;22.17;;;7.00;1.00;;;;;;6097923;23;20189;-84
2021/12/13 06:22:20;;;;;;;43.58;20.75;;;7.10;1.00;;;;;;6067891;23;20186;-84
2021/12/13 06:24:56;;;;;;;44.38;21.55;;;7.10;1.00;;;;;;6097771;23;21136;-85
2021/12/13 06:27:26;;;;;;;46.53;22.75;;;7.10;1.00;;;;;;6068769;23;20191;-85
2021/12/13 06:29:59;;;;;;;47.28;23.20;;;7.10;1.00;;;;;;6069009;23;20206;-84
2021/12/13 06:32:48;;;;;;;41.72;21.42;;;7.10;1.00;;;;;;6097592;23;20188;-83
2021/12/13 06:35:40;;;;;;;43.55;21.38;;;7.00;1.00;;;;;;6100264;23;20447;-86
2021/12/13 06:38:35;;;;;;;42.03;21.02;;;7.00;1.00;;;;;;6071858;23;20208;-85
2021/12/13 06:41:08;;;;;;;46.15;22.55;;;7.00;1.00;;;;;;6072180;23;20196;-86
2021/12/13 06:43:38;;;;;;;42.35;21.20;;;7.00;1.00;;;;;;6074114;23;20189;-84
2021/12/13 06:46:12;;;;;;;45.05;22.45;;;7.00;1.00;;;;;;6083592;23;20196;-84
2021/12/13 06:48:42;;;;;;;44.40;21.15;;;7.00;1.00;;;;;;6120875;23;20184;-85
2021/12/13 06:51:14;;;;;;;58.83;23.25;;;7.00;1.00;;;;;;6113233;23;20203;-86
2021/12/13 06:53:58;;;;;;;47.33;21.73;;;6.90;1.00;;;;;;6103632;23;20256;-86
2021/12/13 06:56:28;;;;;;;47.58;23.30;;;7.00;1.00;;;;;;6108058;23;20240;-84
2021/12/13 06:58:59;;;;;;;42.78;21.33;;;7.00;1.00;;;;;;6085634;23;20192;-84
2021/12/13 07:01:28;;;;;;;50.80;21.75;;;7.00;1.00;;;;;;6079002;23;20219;-85
2021/12/13 07:03:59;;;;;;;42.97;21.95;;;7.00;1.00;;;;;;6105173;23;20376;-86
2021/12/13 07:06:26;;;;;;;46.95;21.63;;;7.10;1.00;;;;;;6083715;23;20192;-85
2021/12/13 07:09:07;;;;;;;44.95;22.42;;;7.10;1.00;;;;;;6105999;23;20216;-83
2021/12/13 07:11:49;;;;;;;46.33;23.27;;;7.10;1.00;;;;;;6112015;23;20164;-85
2021/12/13 07:14:19;;;;;;;51.70;22.45;;;7.10;1.00;;;;;;6106950;23;20192;-83
2021/12/13 07:16:50;;;;;;;52.95;24.70;;;7.10;1.00;;;;;;6076350;23;20272;-84
2021/12/13 07:19:21;;;;;;;40.40;20.10;;;7.10;1.00;;;;;;6075121;23;20298;-85
2021/12/13 07:21:54;;;;;;;43.03;21.25;;;7.10;1.00;;;;;;6104738;23;20212;-81
2021/12/13 07:24:30;;;;;;;45.35;22.50;;;7.20;1.00;;;;;;6117357;23;20180;-80
2021/12/13 07:27:04;;;;;;;44.45;22.20;;;7.10;1.00;;;;;;6120426;23;20357;-80
2021/12/13 07:29:37;;;;;;;53.60;25.05;;;7.20;1.00;;;;;;6119390;23;20182;-81
2021/12/13 07:32:09;;;;;;;48.50;24.05;;;7.20;1.00;;;;;;6116759;23;20173;-81
2021/12/13 07:34:49;;;;;;;54.95;24.27;;;7.20;1.00;;;;;;6114727;23;20230;-81
2021/12/13 07:37:16;;;;;;;58.17;22.55;;;7.20;1.00;;;;;;6113285;23;20200;-81
2021/12/13 07:39:44;;;;;;;49.50;22.13;;;7.20;1.00;;;;;;6117607;23;20619;-80
2021/12/13 07:42:14;;;;;;;59.88;23.30;;;7.10;1.00;;;;;;6119826;23;20193;-81
2021/12/13 07:44:44;;;;;;;42.97;20.35;;;7.10;1.00;;;;;;6119880;23;20249;-84
2021/12/13 07:47:15;;;;;;;46.92;21.52;;;7.20;1.00;;;;;;6118283;23;20200;-82
2021/12/13 07:49:48;;;;;;;50.30;22.88;;;7.20;1.00;;;;;;6120922;23;20180;-82
2021/12/13 07:52:24;;;;;;;43.38;21.70;;;7.30;1.00;;;;;;6095624;23;20339;-83
2021/12/13 07:54:52;;;;;;;50.70;22.48;;;7.30;1.00;;;;;;6119739;23;20201;-80
2021/12/13 07:57:23;;;;;;;50.22;21.15;;;7.30;1.00;;;;;;6115405;23;20300;-82
2021/12/13 07:59:52;;;;;;;55.67;21.48;;;7.30;1.00;;;;;;6107684;23;20224;-83
2021/12/13 08:02:25;;;;;;;49.15;22.90;;;7.30;1.00;;;;;;6106391;23;20914;-84
2021/12/13 08:04:56;;;;;;;51.38;20.83;;;7.30;1.00;;;;;;6102744;23;20189;-82
2021/12/13 08:07:25;;;;;;;50.60;21.95;;;7.30;1.00;;;;;;6103584;23;20291;-84
2021/12/13 08:09:55;;;;;;;53.22;21.60;;;7.30;1.00;;;;;;6075520;23;20253;-81
2021/12/13 08:12:25;;;;;;;41.00;18.92;;;7.20;1.00;;;;;;6104685;23;20859;-82
2021/12/13 08:14:55;;;;;;;40.17;20.13;;;7.30;1.00;;;;;;6107632;23;20208;-80
2021/12/13 08:17:31;;;;;;;48.47;21.98;;;7.30;1.00;;;;;;6112016;23;20224;-80
2021/12/13 08:20:01;;;;;;;46.92;21.88;;;7.30;1.00;;;;;;6098572;23;20209;-81
2021/12/13 08:22:29;;;;;;;49.35;23.40;;;7.30;1.00;;;;;;6102941;23;20191;-84
2021/12/13 08:25:01;;;;;;;59.53;24.27;;;7.40;1.00;;;;;;6105101;23;20192;-80
2021/12/13 08:27:31;;;;;;;48.13;21.23;;;7.40;1.00;;;;;;6106429;23;20858;-82
2021/12/13 08:30:10;;;;;;;46.55;21.63;;;7.30;1.00;;;;;;6110512;23;20244;-79
2021/12/13 08:32:38;;;;;;;51.55;23.05;;;7.30;1.00;;;;;;6119358;23;20184;-81
2021/12/13 08:35:07;;;;;;;47.65;22.33;;;7.40;1.00;;;;;;6117106;23;20224;-83
2021/12/13 08:37:38;;;;;;;45.17;21.48;;;7.40;1.00;;;;;;6102592;23;20222;-84
2021/12/13 08:40:10;;;;;;;47.90;21.45;;;7.50;1.00;;;;;;6104015;23;20185;-84
2021/12/13 08:42:40;;;;;;;47.78;23.60;;;7.50;1.00;;;;;;6105674;23;21009;-84
2021/12/13 08:45:12;;;;;;;42.72;20.80;;;7.50;1.00;;;;;;6104430;23;20239;-83
2021/12/13 08:47:44;;;;;;;38.60;20.52;;;7.50;1.00;;;;;;6103997;23;20211;-86
2021/12/13 08:50:16;;;;;;;48.40;22.02;;;7.50;1.00;;;;;;6104568;23;21066;-84
2021/12/13 08:52:45;;;;;;;46.25;24.20;;;7.60;1.00;;;;;;6105383;23;20350;-82
2021/12/13 08:55:22;;;;;;;43.17;21.92;;;7.70;1.00;;;;;;6107656;23;20235;-81
2021/12/13 08:57:55;;;;;;;39.45;20.10;;;7.70;1.00;;;;;;6111980;23;20581;-81
2021/12/13 09:00:40;;;;;;;45.83;21.10;;;7.70;1.00;;;;;;6103180;23;20207;-84
2021/12/13 09:03:22;;;;;;;46.75;22.13;;;7.70;1.00;;;;;;6102554;23;20189;-82
2021/12/13 09:05:58;;;;;;;47.75;21.33;;;7.70;1.00;;;;;;6103648;23;20203;-81
2021/12/13 09:08:29;;;;;;;47.33;21.33;;;7.70;1.00;;;;;;6106040;23;21334;-83
2021/12/13 09:11:01;;;;;;;43.38;21.00;;;7.70;1.00;;;;;;6100965;23;20193;-84
2021/12/13 09:13:40;;;;;;;40.35;21.67;;;7.60;1.00;;;;;;6104308;23;20486;-84
2021/12/13 09:16:07;;;;;;;45.58;21.73;;;7.60;1.00;;;;;;6105411;23;20239;-85
2021/12/13 09:18:36;;;;;;;38.60;20.67;;;7.70;1.00;;;;;;6104235;23;20216;-86
2021/12/13 09:21:06;;;;;;;42.13;20.02;;;7.70;1.00;;;;;;6102734;23;20624;-84
2021/12/13 09:23:40;;;;;;;47.13;20.90;;;7.70;1.00;;;;;;6103064;23;20223;-84
2021/12/13 09:26:11;;;;;;;42.65;22.58;;;7.70;1.00;;;;;;6102808;23;20183;-84
2021/12/13 09:28:44;;;;;;;43.45;21.80;;;7.70;1.00;;;;;;6105599;23;20200;-84
2021/12/13 09:31:14;;;;;;;45.55;23.17;;;7.80;1.00;;;;;;6108844;23;20246;-84
2021/12/13 09:33:46;;;;;;;44.03;21.30;;;7.80;1.00;;;;;;6102938;23;20749;-85
2021/12/13 09:36:16;;;;;;;43.63;21.65;;;7.80;1.00;;;;;;6104676;23;20196;-83
2021/12/13 09:38:53;;;;;;;38.63;20.60;;;7.80;1.00;;;;;;6079316;23;20197;-84
2021/12/13 09:41:27;;;;;;;41.65;21.35;;;7.90;1.00;;;;;;6107172;23;20185;-86
2021/12/13 09:44:01;;;;;;;42.05;21.88;;;7.80;1.00;;;;;;6107482;23;20915;-85
2021/12/13 09:46:38;;;;;;;40.38;20.90;;;7.80;1.00;;;;;;6106024;23;20196;-84
2021/12/13 09:49:12;;;;;;;44.70;21.88;;;7.80;1.00;;;;;;6105352;23;20192;-81
2021/12/13 09:51:43;;;;;;;41.03;20.73;;;7.70;1.00;;;;;;6103779;23;20636;-80
2021/12/13 09:54:12;;;;;;;39.10;20.25;;;7.80;1.00;;;;;;6102423;23;20208;-81
2021/12/13 09:56:46;;;;;;;35.42;19.90;;;7.80;1.00;;;;;;6109701;23;20223;-80
2021/12/13 09:59:19;;;;;;;43.67;26.00;;;7.70;1.00;;;;;;6118149;23;20198;-80
2021/12/13 10:01:46;;;;;;;43.15;20.95;;;7.80;1.00;;;;;;6121163;23;20237;-81
2021/12/13 10:04:18;;;;;;;36.40;20.15;;;7.80;1.00;;;;;;6113432;23;20185;-82
2021/12/13 10:06:50;;;;;;;37.70;22.08;;;7.80;1.00;;;;;;6105511;23;20193;-84
2021/12/13 10:09:21;;;;;;;44.85;22.17;;;7.90;1.00;;;;;;6077907;23;20224;-84
2021/12/13 10:11:52;;;;;;;35.72;21.10;;;8.00;1.00;;;;;;6110459;23;20188;-84
2021/12/13 10:14:21;;;;;;;32.30;20.45;;;8.00;1.00;;;;;;6112055;23;20216;-85
2021/12/13 10:16:54;;;;;;;32.83;19.65;;;8.00;1.00;;;;;;6103223;23;20293;-84
2021/12/13 10:19:28;;;;;;;37.70;20.55;;;8.10;1.00;;;;;;6102569;23;20197;-85
2021/12/13 10:21:55;;;;;;;37.05;21.88;;;8.10;1.00;;;;;;6103592;23;20189;-84
2021/12/13 10:24:25;;;;;;;31.20;16.35;;;8.10;1.00;;;;;;6103480;23;20196;-85
2021/12/13 10:26:54;;;;;;;28.70;18.80;;;8.20;1.00;;;;;;6105537;23;20193;-84
2021/12/13 10:29:23;;;;;;;35.70;17.67;;;8.20;1.00;;;;;;6121440;23;20183;-84
2021/12/13 10:31:55;;;;;;;31.08;19.38;;;8.20;1.00;;;;;;6116594;23;20194;-83
2021/12/13 10:34:26;;;;;;;34.13;19.15;;;8.20;1.00;;;;;;6100607;23;20197;-85
2021/12/13 10:36:56;;;;;;;30.63;18.25;;;8.40;1.00;;;;;;6103032;23;20685;-85
2021/12/13 10:39:29;;;;;;;26.13;16.95;;;8.40;1.00;;;;;;6101578;23;20200;-83
2021/12/13 10:42:00;;;;;;;30.38;16.33;;;8.40;1.00;;;;;;6102631;23;20186;-83
2021/12/13 10:44:30;;;;;;;26.02;17.63;;;8.40;1.00;;;;;;6101365;23;20212;-85
2021/12/13 10:47:07;;;;;;;27.15;17.77;;;8.40;1.00;;;;;;6100426;23;20201;-82
2021/12/13 10:49:41;;;;;;;34.38;18.30;;;8.40;1.00;;;;;;6098249;23;20284;-81
2021/12/13 10:52:11;;;;;;;30.10;15.48;;;8.40;1.00;;;;;;6102246;23;20201;-81
2021/12/13 10:54:43;;;;;;;26.70;16.55;;;8.40;1.00;;;;;;6103029;23;20596;-83
2021/12/13 10:57:13;;;;;;;26.70;15.40;;;8.40;1.00;;;;;;6102505;23;20202;-84
2021/12/13 10:59:40;;;;;;;25.13;16.40;;;8.40;1.00;;;;;;6101943;23;20193;-82
2021/12/13 11:02:10;;;;;;;27.35;16.88;;;8.50;1.00;;;;;;6102095;23;20208;-81
2021/12/13 11:04:43;;;;;;;26.85;16.38;;;8.50;1.00;;;;;;6076436;23;20917;-84
2021/12/13 11:07:12;;;;;;;25.52;15.85;;;8.50;1.00;;;;;;6102171;23;20292;-82
2021/12/13 11:09:43;;;;;;;26.80;16.15;;;8.50;1.00;;;;;;6101947;23;20188;-84
2021/12/13 11:12:15;;;;;;;26.65;15.73;;;8.40;1.00;;;;;;6100501;23;20198;-83
2021/12/13 11:14:48;;;;;;;26.67;15.88;;;8.30;1.00;;;;;;6074709;23;20202;-82
2021/12/13 11:17:18;;;;;;;25.13;16.38;;;8.30;1.00;;;;;;6104376;23;20231;-82
2021/12/13 11:19:50;;;;;;;26.95;17.00;;;8.40;1.00;;;;;;6085565;23;20856;-84
2021/12/13 11:22:19;;;;;;;36.17;22.33;;;8.40;1.00;;;;;;6111571;23;20235;-84
2021/12/13 11:24:50;;;;;;;32.55;18.98;;;8.50;1.00;;;;;;6086546;23;20172;-84
2021/12/13 11:27:19;;;;;;;29.73;14.32;;;8.50;1.00;;;;;;6092512;23;20228;-86
2021/12/13 11:29:48;;;;;;;26.55;15.95;;;8.50;1.00;;;;;;6122221;23;20197;-85
2021/12/13 11:32:45;;;;;;;29.50;16.67;;;8.50;1.00;;;;;;6115793;23;20195;-85
2021/12/13 11:36:04;;;;;;;29.13;16.80;;;8.50;1.00;;;;;;6083527;23;20258;-85
2021/12/13 11:39:02;;;;;;;23.88;15.80;;;8.60;1.00;;;;;;6109705;23;20189;-82
2021/12/13 11:41:57;;;;;;;28.88;17.27;;;8.60;1.00;;;;;;6111033;23;20194;-81
2021/12/13 11:44:49;;;;;;;27.58;16.70;;;8.50;1.00;;;;;;6111765;23;20986;-82
2021/12/13 11:47:51;;;;;;;23.40;14.82;;;8.50;1.00;;;;;;6112546;23;20191;-81
2021/12/13 11:50:59;;;;;;;28.25;17.50;;;8.50;1.00;;;;;;6115406;23;20181;-84
2021/12/13 11:53:59;;;;;;;29.30;17.98;;;8.60;1.00;;;;;;6105786;23;20683;-85
2021/12/13 11:56:53;;;;;;;27.30;17.98;;;8.60;1.00;;;;;;6104223;23;20276;-81
2021/12/13 11:59:35;;;;;;;35.28;22.17;;;8.70;1.00;;;;;;6103567;23;20240;-82
2021/12/13 12:02:12;;;;;;;25.52;15.85;;;8.70;1.00;;;;;;6104166;23;20693;-82
2021/12/13 12:05:15;;;;;;;23.33;15.18;;;8.80;1.00;;;;;;6107578;23;20185;-84
2021/12/13 12:08:13;;;;;;;36.30;22.67;;;8.80;1.00;;;;;;6109185;23;20597;-83
2021/12/13 12:11:12;;;;;;;33.07;18.27;;;8.80;1.00;;;;;;6084421;23;20960;-84
2021/12/13 12:13:50;;;;;;;21.83;15.93;;;8.80;1.00;;;;;;6104117;23;21200;-82
2021/12/13 12:16:20;;;;;;;30.15;18.70;;;8.80;1.00;;;;;;6108450;23;21004;-83
2021/12/13 12:18:47;;;;;;;26.95;16.13;;;8.80;1.00;;;;;;6111146;23;20233;-83
2021/12/13 12:21:36;;;;;;;26.00;16.03;;;8.80;1.00;;;;;;6122731;23;20242;-81
2021/12/13 12:24:07;;;;;;;27.15;15.85;;;8.90;1.00;;;;;;6125475;23;20383;-81
2021/12/13 12:26:35;;;;;;;25.92;17.20;;;9.10;1.00;;;;;;6124416;23;20185;-81
2021/12/13 12:29:08;;;;;;;28.70;16.80;;;9.10;1.00;;;;;;6125046;23;20193;-80
2021/12/13 12:31:38;;;;;;;30.10;17.33;;;9.10;1.00;;;;;;6121484;23;20408;-80
2021/12/13 12:34:06;;;;;;;25.45;18.30;;;9.20;1.00;;;;;;6123459;23;20421;-81
2021/12/13 12:37:12;;;;;;;23.73;16.55;;;9.20;1.00;;;;;;6121053;23;20336;-81
2021/12/13 12:39:55;;;;;;;24.48;16.73;;;9.30;1.00;;;;;;6121867;23;20179;-82
2021/12/13 12:42:29;;;;;;;26.17;16.95;;;9.20;1.00;;;;;;6110992;23;20459;-82
2021/12/13 12:45:04;;;;;;;22.00;15.68;;;9.20;1.00;;;;;;6109066;23;20210;-80
2021/12/13 12:48:09;;;;;;;23.80;16.75;;;9.20;1.00;;;;;;6114244;23;20654;-81
2021/12/13 12:50:41;;;;;;;25.88;16.05;;;9.20;1.00;;;;;;6112676;23;20212;-84
2021/12/13 12:53:11;;;;;;;23.55;15.68;;;9.20;1.00;;;;;;6112257;23;20212;-79
2021/12/13 12:55:43;;;;;;;24.20;15.77;;;9.20;1.00;;;;;;6113583;23;20241;-82
2021/12/13 12:58:15;;;;;;;22.50;14.55;;;9.30;1.00;;;;;;6085824;23;20759;-83
2021/12/13 13:00:44;;;;;;;21.50;14.93;;;9.20;1.00;;;;;;6110434;23;20188;-83
2021/12/13 13:03:16;;;;;;;22.87;15.03;;;9.30;1.00;;;;;;6105345;23;21162;-84
2021/12/13 13:05:43;;;;;;;24.00;15.93;;;9.30;1.00;;;;;;6102093;23;20407;-83
2021/12/13 13:08:11;;;;;;;21.73;15.20;;;9.30;1.00;;;;;;6098907;23;20489;-85
2021/12/13 13:10:50;;;;;;;19.00;13.90;;;9.30;1.00;;;;;;6100117;23;20418;-84
2021/12/13 13:13:18;;;;;;;23.00;13.70;;;9.30;1.00;;;;;;6100266;23;20567;-86
2021/12/13 13:15:48;;;;;;;19.67;13.90;;;9.40;1.00;;;;;;6106484;23;20987;-82
2021/12/13 13:18:17;;;;;;;18.55;14.68;;;9.40;1.00;;;;;;6109678;23;20411;-82
2021/12/13 13:20:47;;;;;;;19.60;13.30;;;9.50;1.00;;;;;;6113089;23;20189;-85
2021/12/13 13:23:15;;;;;;;19.10;13.93;;;9.50;1.00;;;;;;6111635;23;20373;-84
2021/12/13 13:25:44;;;;;;;20.23;13.93;;;9.50;1.00;;;;;;6112356;23;20699;-82